createdAt,value
2023-01-07T00:01:45.172Z,100844.22
2023-01-07T00:04:15.096Z,100852.75
2023-01-07T00:06:43.932Z,100896.81
2023-01-07T00:09:14.719Z,100876.56
2023-01-07T00:11:42.060Z,100904.69
2023-01-07T00:14:11.324Z,100893.63
2023-01-07T00:16:39.106Z,100892.38
2023-01-07T00:19:08.218Z,100804.19
2023-01-07T00:21:35.293Z,100897.06
2023-01-07T00:24:05.273Z,100904.06
2023-01-07T00:26:37.191Z,100888.75
2023-01-07T00:29:05.544Z,100906.06
2023-01-07T00:31:35.588Z,100875.66
2023-01-07T00:34:02.998Z,100910.28
2023-01-07T00:36:32.844Z,100887.34
2023-01-07T00:39:06.111Z,100900.84
2023-01-07T00:41:33.425Z,100901.09
2023-01-07T00:44:00.652Z,100892.56
2023-01-07T00:46:27.843Z,100877.03
2023-01-07T00:48:54.890Z,100882.88
2023-01-07T00:51:21.941Z,100892.47
2023-01-07T00:53:49.040Z,100900.16
2023-01-07T00:56:20.372Z,100898.38
2023-01-07T00:58:47.434Z,100864.84
2023-01-07T01:01:15.957Z,100897.94
2023-01-07T01:03:42.987Z,100840.59
2023-01-07T01:06:16.472Z,100906.72
2023-01-07T01:08:45.646Z,100898.88
2023-01-07T01:11:14.857Z,100891.84
2023-01-07T01:13:43.556Z,100907.81
2023-01-07T01:16:14.735Z,100901.34
2023-01-07T01:18:42.609Z,100909.44
2023-01-07T01:21:12.288Z,100892.13
2023-01-07T01:23:39.936Z,100905.88
2023-01-07T01:26:09.501Z,100894.38
2023-01-07T01:28:36.631Z,100904.47
2023-01-07T01:31:04.602Z,100906.72
2023-01-07T01:33:41.866Z,100855.34
2023-01-07T01:36:12.120Z,100936.31
2023-01-07T01:38:40.242Z,100910.66
2023-01-07T01:41:07.541Z,100932.22
2023-01-07T01:43:40.603Z,100911.06
2023-01-07T01:46:30.125Z,100946.84
2023-01-07T01:49:01.695Z,100947.28
2023-01-07T01:51:34.810Z,100932.13
2023-01-07T01:54:05.383Z,100944.75
2023-01-07T01:56:36.020Z,100944.66
2023-01-07T01:59:09.256Z,100965.09
2023-01-07T02:01:39.069Z,100969.09
2023-01-07T02:04:15.545Z,100975.09
2023-01-07T02:07:11.874Z,100980.22
2023-01-07T02:09:43.777Z,100983.13
2023-01-07T02:12:33.219Z,100986.25
2023-01-07T02:15:09.891Z,100980.09
2023-01-07T02:17:36.921Z,100986.81
2023-01-07T02:20:09.990Z,100980.47
2023-01-07T02:23:12.048Z,100994.16
2023-01-07T02:26:06.807Z,100994.31
2023-01-07T02:29:01.977Z,100983.44
2023-01-07T02:32:04.872Z,101002.63
2023-01-07T02:34:55.664Z,101000.34
2023-01-07T02:37:41.788Z,101005.25
2023-01-07T02:40:20.563Z,101012.13
2023-01-07T02:43:17.031Z,101008.34
2023-01-07T02:45:56.887Z,101010.09
2023-01-07T02:48:25.783Z,100991.09
2023-01-07T02:50:52.839Z,101017.91
2023-01-07T02:53:21.183Z,101021.69
2023-01-07T02:56:31.341Z,101023.06
2023-01-07T02:59:09.462Z,101005.88
2023-01-07T03:01:52.123Z,101038.09
2023-01-07T03:04:34.455Z,101039.09
2023-01-07T03:07:01.353Z,101043.06
2023-01-07T03:10:05.811Z,101046.09
2023-01-07T03:12:50.262Z,101046.81
2023-01-07T03:15:29.264Z,101055.69
2023-01-07T03:18:04.620Z,101018.38
2023-01-07T03:20:35.750Z,101057.75
2023-01-07T03:23:07.054Z,101061.88
2023-01-07T03:25:39.661Z,101052.69
2023-01-07T03:28:08.079Z,101034.84
2023-01-07T03:30:37.177Z,101061.22
2023-01-07T03:33:27.634Z,101067.47
2023-01-07T03:35:59.668Z,101068.75
2023-01-07T03:38:27.960Z,101061.34
2023-01-07T03:40:55.727Z,101065.84
2023-01-07T03:43:23.469Z,101064.06
2023-01-07T03:45:52.445Z,101068.97
2023-01-07T03:48:19.723Z,101074.34
2023-01-07T03:50:48.555Z,101047.88
2023-01-07T03:53:15.779Z,101068.13
2023-01-07T03:55:45.733Z,101082.03
2023-01-07T03:58:13.720Z,101090.00
2023-01-07T04:00:40.655Z,101087.97
2023-01-07T04:03:14.542Z,101083.66
2023-01-07T04:05:45.236Z,101077.13
2023-01-07T04:08:13.059Z,101084.91
2023-01-07T04:10:41.010Z,101085.34
2023-01-07T04:13:08.643Z,101099.03
2023-01-07T04:15:36.431Z,101042.06
2023-01-07T04:18:03.650Z,101093.41
2023-01-07T04:20:31.119Z,101078.22
2023-01-07T04:22:58.142Z,101094.88
2023-01-07T04:25:25.119Z,101089.63
2023-01-07T04:27:52.237Z,101107.09
2023-01-07T04:30:19.216Z,101105.31
2023-01-07T04:32:46.246Z,101003.63
2023-01-07T04:35:13.207Z,101105.22
2023-01-07T04:37:40.192Z,101111.72
2023-01-07T04:40:08.145Z,101119.94
2023-01-07T04:42:36.752Z,101112.81
2023-01-07T04:45:05.459Z,101088.28
2023-01-07T04:47:32.469Z,101106.34
2023-01-07T04:49:59.936Z,101109.19
2023-01-07T04:52:31.068Z,101067.94
2023-01-07T04:54:58.478Z,101086.00
2023-01-07T04:57:25.669Z,101068.59
2023-01-07T04:59:54.301Z,101117.28
2023-01-07T05:02:21.522Z,101119.19
2023-01-07T05:04:48.963Z,101122.31
2023-01-07T05:07:18.016Z,101129.84
2023-01-07T05:09:45.462Z,101125.94
2023-01-07T05:12:13.888Z,101119.63
2023-01-07T05:14:42.825Z,101097.94
2023-01-07T05:17:10.006Z,101132.00
2023-01-07T05:19:38.362Z,101133.25
2023-01-07T05:22:05.394Z,101142.09
2023-01-07T05:24:36.726Z,101150.56
2023-01-07T05:27:03.843Z,101148.34
2023-01-07T05:29:30.958Z,101159.34
2023-01-07T05:31:57.956Z,101103.69
2023-01-07T05:34:25.767Z,101170.25
2023-01-07T05:36:52.925Z,101145.78
2023-01-07T05:39:19.965Z,101149.34
2023-01-07T05:41:47.019Z,101132.47
2023-01-07T05:44:14.076Z,101176.22
2023-01-07T05:46:41.083Z,101149.63
2023-01-07T05:49:08.237Z,101157.00
2023-01-07T05:51:35.724Z,101175.25
2023-01-07T05:54:02.733Z,101180.91
2023-01-07T05:56:29.743Z,101174.84
2023-01-07T05:58:56.760Z,101156.13
2023-01-07T06:01:23.774Z,101170.59
2023-01-07T06:03:50.816Z,101183.97
2023-01-07T06:06:17.977Z,101194.38
2023-01-07T06:08:45.121Z,101195.94
2023-01-07T06:11:12.069Z,101201.59
2023-01-07T06:13:39.195Z,101211.94
2023-01-07T06:16:09.189Z,101176.50
2023-01-07T06:18:36.634Z,101215.88
2023-01-07T06:21:03.756Z,101231.22
2023-01-07T06:23:31.539Z,101229.25
2023-01-07T06:25:58.608Z,101240.25
2023-01-07T06:28:25.636Z,101232.69
2023-01-07T06:30:52.662Z,101234.91
2023-01-07T06:33:19.751Z,101226.88
2023-01-07T06:35:47.041Z,101164.03
2023-01-07T06:38:14.140Z,101236.97
2023-01-07T06:40:41.186Z,101224.81
2023-01-07T06:43:08.165Z,101260.44
2023-01-07T06:45:35.122Z,101269.63
2023-01-07T06:48:02.651Z,101268.63
2023-01-07T06:50:29.733Z,101254.13
2023-01-07T06:52:57.043Z,101284.06
2023-01-07T06:55:24.135Z,101277.19
2023-01-07T06:57:51.098Z,101274.22
2023-01-07T07:00:18.255Z,101252.91
2023-01-07T07:02:45.277Z,101282.47
2023-01-07T07:05:12.783Z,101274.81
2023-01-07T07:07:39.814Z,101288.03
2023-01-07T07:10:08.464Z,101251.41
2023-01-07T07:12:37.042Z,101276.72
2023-01-07T07:15:06.071Z,101274.41
2023-01-07T07:17:34.839Z,101273.53
2023-01-07T07:20:02.047Z,101289.34
2023-01-07T07:22:30.600Z,101289.88
2023-01-07T07:24:57.638Z,101294.63
2023-01-07T07:27:24.591Z,101296.84
2023-01-07T07:29:51.559Z,101299.06
2023-01-07T07:32:18.476Z,101288.34
2023-01-07T07:34:45.461Z,101305.31
2023-01-07T07:37:12.463Z,101292.00
2023-01-07T07:39:39.374Z,101308.34
2023-01-07T07:42:06.423Z,101308.34
2023-01-07T07:44:33.469Z,101306.53
2023-01-07T07:47:00.432Z,101310.63
2023-01-07T07:49:27.426Z,101291.47
2023-01-07T07:51:54.482Z,101313.66
2023-01-07T07:54:23.810Z,101332.00
2023-01-07T07:56:51.322Z,101326.41
2023-01-07T07:59:18.311Z,101350.44
2023-01-07T08:01:45.364Z,101344.91
2023-01-07T08:04:12.375Z,101341.28
2023-01-07T08:06:39.421Z,101360.03
2023-01-07T08:09:06.403Z,101352.31
2023-01-07T08:11:33.398Z,101348.38
2023-01-07T08:14:00.460Z,101349.56
2023-01-07T08:16:27.967Z,101298.31
2023-01-07T08:18:54.990Z,101347.44
2023-01-07T08:21:21.981Z,101338.28
2023-01-07T08:23:48.939Z,101330.00
2023-01-07T08:26:15.912Z,101334.78
2023-01-07T08:28:43.767Z,101355.13
2023-01-07T08:31:12.210Z,101351.34
2023-01-07T08:33:39.963Z,101285.94
2023-01-07T08:36:18.111Z,101362.75
2023-01-07T08:38:53.109Z,101355.69
2023-01-07T08:41:22.099Z,101340.00
2023-01-07T08:43:49.166Z,101356.09
2023-01-07T08:46:16.427Z,101349.28
2023-01-07T08:48:43.467Z,101355.19
2023-01-07T08:51:10.451Z,101332.09
2023-01-07T08:53:37.447Z,101311.81
2023-01-07T08:56:04.655Z,101354.28
2023-01-07T08:58:31.622Z,101351.34
2023-01-07T09:01:04.160Z,101330.69
2023-01-07T09:03:31.428Z,101361.00
2023-01-07T09:05:58.999Z,101373.34
2023-01-07T09:08:26.079Z,101349.22
2023-01-07T09:10:53.030Z,101369.75
2023-01-07T09:13:19.932Z,101391.69
2023-01-07T09:15:46.853Z,101388.66
2023-01-07T09:18:13.823Z,101386.91
2023-01-07T09:20:40.792Z,101382.47
2023-01-07T09:23:08.230Z,101377.59
2023-01-07T09:25:35.188Z,101379.91
2023-01-07T09:28:02.123Z,101354.75
2023-01-07T09:30:29.173Z,101374.59
2023-01-07T09:32:56.231Z,101371.97
2023-01-07T09:35:23.445Z,101376.22
2023-01-07T09:37:50.503Z,101291.88
2023-01-07T09:40:35.756Z,101372.78
2023-01-07T09:43:14.387Z,101376.03
2023-01-07T09:45:55.469Z,101355.34
2023-01-07T09:48:32.195Z,101345.84
2023-01-07T09:51:01.863Z,101371.69
2023-01-07T09:53:41.608Z,101359.16
2023-01-07T09:56:20.169Z,101373.22
2023-01-07T09:58:48.788Z,101372.41
2023-01-07T10:01:37.495Z,101386.63
2023-01-07T10:04:26.268Z,101387.59
2023-01-07T10:07:31.862Z,101366.69
2023-01-07T10:10:01.472Z,101386.38
2023-01-07T10:12:35.950Z,101378.78
2023-01-07T10:15:17.995Z,101382.38
2023-01-07T10:17:57.139Z,101380.16
2023-01-07T10:20:45.692Z,101382.84
2023-01-07T10:23:37.556Z,101387.28
2023-01-07T10:26:11.230Z,101384.03
2023-01-07T10:29:25.684Z,101374.81
2023-01-07T10:31:58.013Z,101374.41
2023-01-07T10:34:38.727Z,101287.28
2023-01-07T10:37:46.079Z,101382.09
2023-01-07T10:40:22.195Z,101390.75
2023-01-07T10:43:05.021Z,101354.66
2023-01-07T10:45:48.047Z,101369.13
2023-01-07T10:48:39.398Z,101374.75
2023-01-07T10:51:27.729Z,101380.19
2023-01-07T10:54:13.097Z,101377.44
2023-01-07T10:56:45.330Z,101300.28
2023-01-07T10:59:18.273Z,101377.00
2023-01-07T11:01:59.498Z,101379.47
2023-01-07T11:04:27.163Z,101362.41
2023-01-07T11:06:59.820Z,101352.94
2023-01-07T11:09:31.551Z,101377.75
2023-01-07T11:12:03.141Z,101371.69
2023-01-07T11:14:36.183Z,101389.53
2023-01-07T11:17:17.208Z,101375.03
2023-01-07T11:19:51.608Z,101349.66
2023-01-07T11:22:27.467Z,101372.03
2023-01-07T11:24:56.138Z,101373.88
2023-01-07T11:27:29.431Z,101389.09
2023-01-07T11:30:05.164Z,101390.44
2023-01-07T11:32:38.674Z,101392.56
2023-01-07T11:35:18.247Z,101380.22
2023-01-07T11:37:48.028Z,101391.69
2023-01-07T11:40:17.341Z,101395.06
2023-01-07T11:43:00.663Z,101393.28
2023-01-07T11:45:30.905Z,101332.34
2023-01-07T11:48:14.922Z,101229.09
2023-01-07T11:50:57.443Z,101394.94
2023-01-07T11:53:37.278Z,101404.50
2023-01-07T11:56:08.482Z,101393.59
2023-01-07T11:58:41.285Z,101408.09
2023-01-07T12:01:08.877Z,101411.97
2023-01-07T12:03:42.112Z,101381.28
2023-01-07T12:06:25.430Z,101411.31
2023-01-07T12:09:00.610Z,101409.97
2023-01-07T12:11:36.766Z,101416.06
2023-01-07T12:14:09.228Z,101357.16
2023-01-07T12:16:38.823Z,101414.03
2023-01-07T12:19:39.681Z,101414.22
2023-01-07T12:22:33.605Z,101427.31
2023-01-07T12:25:37.078Z,101421.22
2023-01-07T12:28:06.729Z,101425.03
2023-01-07T12:31:15.343Z,101384.66
2023-01-07T12:33:57.384Z,101427.50
2023-01-07T12:36:41.580Z,101422.09
2023-01-07T12:39:19.652Z,101424.13
2023-01-07T12:41:56.604Z,101423.44
2023-01-07T12:44:58.451Z,101409.03
2023-01-07T12:47:52.690Z,101411.25
2023-01-07T12:50:35.835Z,101368.16
2023-01-07T12:53:31.065Z,101424.09
2023-01-07T12:59:51.858Z,101427.97
2023-01-07T13:03:04.530Z,101421.88
2023-01-07T13:05:45.417Z,101434.94
2023-01-07T13:08:16.072Z,101420.03
2023-01-07T13:10:48.047Z,101415.25
2023-01-07T13:13:52.098Z,101435.16
2023-01-07T13:16:19.588Z,101432.19
2023-01-07T13:18:46.870Z,101430.78
2023-01-07T13:21:16.148Z,101433.53
2023-01-07T13:24:01.519Z,101446.84
2023-01-07T13:26:51.257Z,101442.78
2023-01-07T13:29:54.776Z,101444.81
2023-01-07T13:32:52.762Z,101443.88
2023-01-07T13:35:39.946Z,101415.44
2023-01-07T13:38:28.333Z,101450.69
2023-01-07T13:41:27.736Z,101448.84
2023-01-07T13:44:10.113Z,101444.56
2023-01-07T13:46:41.836Z,101448.44
2023-01-07T13:49:30.674Z,101424.47
2023-01-07T13:52:22.037Z,101449.09
2023-01-07T13:54:49.261Z,101453.16
2023-01-07T13:57:31.518Z,101451.13
2023-01-07T14:00:00.635Z,101450.88
2023-01-07T14:02:57.585Z,101457.44
2023-01-07T14:05:27.264Z,101461.50
2023-01-07T14:08:01.615Z,101463.53
2023-01-07T14:10:36.390Z,101459.28
2023-01-07T14:13:30.428Z,101449.78
2023-01-07T14:16:12.087Z,101442.56
2023-01-07T14:18:48.063Z,101470.53
2023-01-07T14:21:31.378Z,101429.25
2023-01-07T14:24:13.816Z,101466.25
2023-01-07T14:27:09.192Z,101442.81
2023-01-07T14:29:46.919Z,101454.31
2023-01-07T14:32:37.175Z,101456.16
2023-01-07T14:35:20.222Z,101455.25
2023-01-07T14:37:48.528Z,101436.03
2023-01-07T14:40:29.307Z,101474.63
2023-01-07T14:42:58.167Z,101433.97
2023-01-07T14:45:37.167Z,101470.13
2023-01-07T14:48:10.252Z,101467.41
2023-01-07T14:50:49.436Z,101456.34
2023-01-07T14:53:16.402Z,101475.06
2023-01-07T14:55:52.748Z,101459.75
2023-01-07T14:58:28.975Z,101478.69
2023-01-07T15:01:28.007Z,101474.16
2023-01-07T15:04:32.767Z,101483.19
2023-01-07T15:07:01.374Z,101472.56
2023-01-07T15:10:03.340Z,101485.22
2023-01-07T15:13:13.502Z,101421.06
2023-01-07T15:16:04.278Z,101484.06
2023-01-07T15:18:34.740Z,101489.94
2023-01-07T15:21:18.890Z,101424.22
2023-01-07T15:23:54.546Z,101494.47
2023-01-07T15:26:28.917Z,101488.81
2023-01-07T15:29:09.523Z,101494.47
2023-01-07T15:31:45.623Z,101488.38
2023-01-07T15:34:17.237Z,101481.34
2023-01-07T15:36:48.139Z,101477.31
2023-01-07T15:39:25.297Z,101485.66
2023-01-07T15:41:57.009Z,101488.16
2023-01-07T15:44:28.996Z,101473.47
2023-01-07T15:46:56.370Z,101482.75
2023-01-07T15:49:25.227Z,101467.66
2023-01-07T15:51:59.754Z,101462.69
2023-01-07T15:54:32.799Z,101464.25
2023-01-07T15:57:05.243Z,101462.91
2023-01-07T15:59:35.447Z,101454.31
2023-01-07T16:02:25.118Z,101480.25
2023-01-07T16:04:55.168Z,101447.97
2023-01-07T16:07:28.336Z,101468.97
2023-01-07T16:09:57.038Z,101470.31
2023-01-07T16:12:38.587Z,101463.81
2023-01-07T16:15:28.138Z,101462.88
2023-01-07T16:18:01.403Z,101460.38
2023-01-07T16:20:32.531Z,101492.19
2023-01-07T16:23:08.367Z,101484.75
2023-01-07T16:25:38.198Z,101483.84
2023-01-07T16:28:05.987Z,101470.97
2023-01-07T16:30:41.469Z,101492.44
2023-01-07T16:33:14.239Z,101486.31
2023-01-07T16:35:41.609Z,101498.94
2023-01-07T16:38:09.452Z,101478.38
2023-01-07T16:40:38.926Z,101480.88
2023-01-07T16:43:30.460Z,101484.28
2023-01-07T16:46:18.912Z,101486.31
2023-01-07T16:48:50.173Z,101456.50
2023-01-07T16:51:42.078Z,101484.09
2023-01-07T16:54:19.579Z,101459.69
2023-01-07T16:56:54.950Z,101461.47
2023-01-07T16:59:26.318Z,101487.22
2023-01-07T17:01:53.879Z,101459.88
2023-01-07T17:04:30.001Z,101504.38
2023-01-07T17:06:59.386Z,101446.09
2023-01-07T17:09:33.386Z,101518.13
2023-01-07T17:12:00.367Z,101511.16
2023-01-07T17:14:33.631Z,101475.72
2023-01-07T17:17:17.095Z,101506.84
2023-01-07T17:20:14.669Z,101518.13
2023-01-07T17:22:42.719Z,101498.53
2023-01-07T17:25:28.512Z,101492.91
2023-01-07T17:28:00.006Z,101491.75
2023-01-07T17:30:36.137Z,101504.41
2023-01-07T17:33:03.931Z,101475.97
2023-01-07T17:35:30.935Z,101480.47
2023-01-07T17:37:58.048Z,101502.63
2023-01-07T17:40:25.110Z,101497.91
2023-01-07T17:43:10.551Z,101497.22
2023-01-07T17:45:37.607Z,101435.38
2023-01-07T17:48:13.632Z,101489.09
2023-01-07T17:50:41.506Z,101421.59
2023-01-07T17:53:21.785Z,101500.41
2023-01-07T17:55:48.860Z,101433.56
2023-01-07T17:58:29.055Z,101467.44
2023-01-07T18:00:57.360Z,101462.06
2023-01-07T18:03:25.310Z,101496.16
2023-01-07T18:05:52.522Z,101500.47
2023-01-07T18:08:19.646Z,101467.28
2023-01-07T18:11:05.575Z,101496.38
2023-01-07T18:13:32.553Z,101498.19
2023-01-07T18:15:59.654Z,101492.78
2023-01-07T18:18:30.430Z,101485.06
2023-01-07T18:20:58.153Z,101490.28
2023-01-07T18:23:25.583Z,101466.34
2023-01-07T18:25:52.734Z,101474.72
2023-01-07T18:28:19.725Z,101497.97
2023-01-07T18:30:46.673Z,101490.53
2023-01-07T18:33:13.635Z,101430.47
2023-01-07T18:35:43.423Z,101489.41
2023-01-07T18:38:14.545Z,101486.69
2023-01-07T18:40:41.789Z,101491.00
2023-01-07T18:43:14.351Z,101475.16
2023-01-07T18:45:43.220Z,101493.22
2023-01-07T18:48:11.936Z,101463.00
2023-01-07T18:50:43.430Z,101471.13
2023-01-07T18:53:11.193Z,101444.94
2023-01-07T18:55:40.382Z,101478.13
2023-01-07T18:58:08.823Z,101482.66
2023-01-07T19:00:36.129Z,101482.66
2023-01-07T19:03:03.404Z,101390.34
2023-01-07T19:05:30.695Z,101482.19
2023-01-07T19:07:57.815Z,101490.09
2023-01-07T19:10:25.984Z,101441.09
2023-01-07T19:12:53.259Z,101475.44
2023-01-07T19:15:20.379Z,101485.59
2023-01-07T19:17:47.341Z,101483.09
2023-01-07T19:20:15.486Z,101491.22
2023-01-07T19:22:42.834Z,101512.41
2023-01-07T19:25:10.159Z,101505.44
2023-01-07T19:27:37.420Z,101490.31
2023-01-07T19:30:05.782Z,101505.47
2023-01-07T19:32:32.931Z,101438.63
2023-01-07T19:35:01.072Z,101508.41
2023-01-07T19:37:28.579Z,101505.03
2023-01-07T19:39:55.593Z,101504.53
2023-01-07T19:42:22.587Z,101485.56
2023-01-07T19:44:49.602Z,101495.25
2023-01-07T19:47:17.424Z,101497.47
2023-01-07T19:49:45.467Z,101490.50
2023-01-07T19:52:13.776Z,101481.94
2023-01-07T19:54:41.915Z,101486.22
2023-01-07T19:57:09.309Z,101491.88
2023-01-07T19:59:36.441Z,101481.94
2023-01-07T20:02:04.747Z,101404.97
2023-01-07T20:04:31.862Z,101488.91
2023-01-07T20:06:58.964Z,101493.66
2023-01-07T20:09:27.937Z,101442.22
2023-01-07T20:11:54.942Z,101498.44
2023-01-07T20:14:22.007Z,101506.56
2023-01-07T20:16:49.121Z,101492.09
2023-01-07T20:19:16.239Z,101500.22
2023-01-07T20:21:43.220Z,101500.22
2023-01-07T20:24:12.535Z,101497.72
2023-01-07T20:26:39.560Z,101508.78
2023-01-07T20:29:06.593Z,101456.88
2023-01-07T20:31:33.672Z,101507.47
2023-01-07T20:34:00.746Z,101513.09
2023-01-07T20:36:30.243Z,101513.28
2023-01-07T20:38:57.618Z,101503.38
2023-01-07T20:41:26.520Z,101514.00
2023-01-07T20:43:59.356Z,101517.59
2023-01-07T20:46:28.587Z,101512.41
2023-01-07T20:48:56.177Z,101515.34
2023-01-07T20:51:23.404Z,101514.22
2023-01-07T20:53:50.640Z,101433.88
2023-01-07T20:56:22.885Z,101476.09
2023-01-07T20:58:50.525Z,101511.28
2023-01-07T21:01:20.690Z,101507.47
2023-01-07T21:03:48.101Z,101469.56
2023-01-07T21:06:17.692Z,101503.16
2023-01-07T21:08:46.941Z,101502.47
2023-01-07T21:11:17.063Z,101507.47
2023-01-07T21:13:44.340Z,101502.69
2023-01-07T21:16:12.357Z,101500.47
2023-01-07T21:18:40.021Z,101491.44
2023-01-07T21:21:19.177Z,101501.13
2023-01-07T21:23:49.527Z,101500.69
2023-01-07T21:26:17.778Z,101496.41
2023-01-07T21:28:45.555Z,101505.88
2023-01-07T21:31:15.445Z,101503.59
2023-01-07T21:33:43.566Z,101473.84
2023-01-07T21:36:12.949Z,101493.22
2023-01-07T21:38:40.177Z,101471.56
2023-01-07T21:44:52.506Z,101345.41
2023-01-07T21:47:19.539Z,101467.22
2023-01-07T21:49:46.491Z,101458.88
2023-01-07T21:52:13.523Z,101482.75
2023-01-07T21:54:40.498Z,101491.97
2023-01-07T21:57:07.483Z,101494.69
2023-01-07T21:59:34.554Z,101457.91
2023-01-07T22:02:01.890Z,101444.78
2023-01-07T22:04:29.291Z,101482.50
2023-01-07T22:06:56.723Z,101461.28
2023-01-07T22:09:25.412Z,101442.78
2023-01-07T22:11:52.508Z,101477.78
2023-01-07T22:14:19.658Z,101457.44
2023-01-07T22:16:49.319Z,101424.97
2023-01-07T22:19:16.468Z,101476.41
2023-01-07T22:21:43.502Z,101471.44
2023-01-07T22:24:10.776Z,101476.81
2023-01-07T22:26:38.296Z,101463.47
2023-01-07T22:29:07.945Z,101472.25
2023-01-07T22:31:36.895Z,101470.41
2023-01-07T22:34:06.497Z,101423.59
2023-01-07T22:37:10.249Z,101433.28
2023-01-07T22:39:47.264Z,101439.59
2023-01-07T22:42:31.122Z,101441.53
2023-01-07T22:45:15.337Z,101454.41
2023-01-07T22:47:46.063Z,101466.75
2023-01-07T22:50:14.746Z,101450.25
2023-01-07T22:52:46.051Z,101459.00
2023-01-07T22:55:13.281Z,101468.44
2023-01-07T22:57:40.998Z,101458.91
2023-01-07T23:00:15.546Z,101464.97
2023-01-07T23:02:42.566Z,101451.63
2023-01-07T23:05:09.585Z,101437.41
2023-01-07T23:07:36.629Z,101471.47
2023-01-07T23:10:03.985Z,101375.63
2023-01-07T23:12:31.273Z,101472.03
2023-01-07T23:14:58.250Z,101466.84
2023-01-07T23:17:26.376Z,101473.38
2023-01-07T23:19:53.324Z,101465.22
2023-01-07T23:22:20.286Z,101382.88
2023-01-07T23:24:47.262Z,101484.50
2023-01-07T23:27:14.224Z,101445.66
2023-01-07T23:30:10.256Z,101474.53
2023-01-07T23:32:38.186Z,101488.78
2023-01-07T23:35:05.596Z,101474.38
2023-01-07T23:37:33.070Z,101465.06
2023-01-07T23:40:00.128Z,101466.44
2023-01-07T23:42:27.092Z,101470.03
2023-01-07T23:44:54.137Z,101466.44
2023-01-07T23:47:21.155Z,101481.72
2023-01-07T23:49:48.144Z,101484.78
2023-01-07T23:52:15.273Z,101461.69
2023-01-07T23:54:42.338Z,101451.56
2023-01-07T23:57:09.688Z,101481.47
2023-01-07T23:59:36.801Z,101453.88
